Las Vegas, NV

6:59 PM PST on March 03, 2015 (GMT -0800)
Rhodes Ranch | Change Station
CLOSE
Current Station
Personal Weather Station
Location: Las Vegas, NV
Elevation: 2743 ft
Nearby Weather Stations

Elev 2743 ft 36.05 °N, 115.29 °W | Updated 3 minutes ago

Overcast
Overcast
49.5 °F
Feels Like 50 °F
N
0.0
Wind Variable Wind from North
Gusts 5.0 mph

Today
High -- | Low -- °F
--% Chance of Precip.
Yesterday
High -- | Low -- °F
Precip. -- in
6:09 AM 5:37 PM
Waxing Gibbous, 98% visible
Pressure 29.83 in
Visibility 10.0 miles
Clouds Few 5000 ft
Mostly Cloudy 7500 ft
Mostly Cloudy 10000 ft
Windchill 50 °F
Dew Point 35 °F
Humidity 57%
Rainfall 0.07 in
Snow Depth Not available.
UV 0 out of 12
Pollen 8.80 out of 12
Air Quality Not available.
Flu Activity Not available.
METAR KLAS 040156Z 00000KT 10SM FEW050 BKN075 BKN100 13/01 A2984 RMK AO2 SLP102 VCSH CBMAM DSNT S T01280006

More Conditions Fewer Conditions

Pressure 29.83 in
Visibility 10.0 miles
Clouds Few 5000 ft
Mostly Cloudy 7500 ft
Mostly Cloudy 10000 ft
Windchill 50 °F
Dew Point 35 °F
Humidity 57%
Rainfall 0.07 in
Snow Depth Not available.
UV 0 out of 12
Pollen 8.80 out of 12
Air Quality Not available.
Flu Activity Not available.
METAR KLAS 040156Z 00000KT 10SM FEW050 BKN075 BKN100 13/01 A2984 RMK AO2 SLP102 VCSH CBMAM DSNT S T01280006

More Conditions Fewer Conditions

10-Day Weather Forecast

Almanac

Astronomy

Mar. 03, 2015 Rise Set
Actual Time
Civil Twilight
Nautical Twilight
Astronomical Twilight
Moon
Length of Visible Light
Length of Day
Tomorrow will be .
, % of the Moon is Illuminated

Today's Extremes

State Highs State Lows

Community

WunderPhotos

Upload Photos

1,802,361 photos uploaded!

WunderBlogs® & News

Nearby

Air Quality

  Air Quality AQ Index Pollutant
Not available.

Snow Depth

Station Depth Elevation

Earthquake Activity

City Distance Mag. Time & Date
Minimum magnitude displayed is 2.5.

Coastal Water Temperatures

Place Temperature

Nearby Weather Stations